ACE weather

Lanzarote Airport
Lanzarote Island, Canary Islands, Spain

Public forecast

Using degrees Celsius for public forecast. Weather courtesy of forecast.io.

Current aviation weather report (METAR) for Lanzarote Airport

Retrieved 2019/12/06 15:30 UTC (0 seconds ago):

GCRR 061530Z 36016KT 330V030 9999 FEW025 SCT030 20/13 Q1015

Aviation forecast (TAF) for Lanzarote Airport

Retrieved 2019/12/06 15:30 UTC (0 seconds ago):

TAF GCRR 061400Z 0615/0715 02013KT 9999 SCT030 TX23/0714Z TN15/0707Z PROB30 TEMPO 0615/0621 4500 RA FEW030TCU